Time;durP1;ratioP1;P1;durP2;ratioP2;P2;SDS_P1;SDS_P2;PMS_P1;PMS_P2;Temp;Humidity;BMP_temperature;BMP_pressure;BME280_temperature;BME280_humidity;BME280_pressure;Samples;Min_cycle;Max_cycle;Signal;HPM_P1;HPM_P2
2021/12/07 00:00:44;;;;;;;;;1.75;1.00;;;;;10.56;90.66;100985.63;5083933;27;62639;-76
2021/12/07 00:03:10;;;;;;;;;4.25;2.00;;;;;10.59;91.83;100993.69;5085060;27;62130;-76
2021/12/07 00:05:35;;;;;;;;;7.25;2.25;;;;;10.66;92.39;100992.25;5083596;28;61813;-76
2021/12/07 00:08:01;;;;;;;;;1.50;1.50;;;;;10.67;91.85;100989.69;5084993;27;61949;-76
2021/12/07 00:10:26;;;;;;;;;1.00;1.00;;;;;10.62;92.03;100988.56;5083645;28;62181;-76
2021/12/07 00:12:52;;;;;;;;;3.50;2.25;;;;;10.56;90.27;100998.75;5084453;27;62761;-76
2021/12/07 00:15:21;;;;;;;;;2.00;2.00;;;;;10.63;92.33;100993.00;5084506;27;61984;-76
2021/12/07 00:17:48;;;;;;;;;5.00;3.00;;;;;10.72;91.50;100996.06;5084986;28;61888;-76
2021/12/07 00:20:17;;;;;;;;;2.00;2.00;;;;;10.78;91.58;100988.47;5082601;28;63729;-76
2021/12/07 00:22:47;;;;;;;;;7.00;2.00;;;;;10.76;90.06;100987.50;5084448;27;61953;-76
2021/12/07 00:25:14;;;;;;;;;6.75;2.00;;;;;10.78;89.73;100987.56;5083241;27;61720;-76
2021/12/07 00:27:40;;;;;;;;;3.75;1.50;;;;;10.83;90.20;100986.94;5084273;27;61747;-76
2021/12/07 00:30:07;;;;;;;;;1.50;1.50;;;;;10.90;90.59;100979.34;5083642;28;62011;-76
2021/12/07 00:32:38;;;;;;;;;4.50;2.00;;;;;10.94;90.27;100987.44;5084387;27;61972;-76
2021/12/07 00:37:40;;;;;;;;;2.00;2.00;;;;;10.97;89.02;100981.44;5084834;27;61867;-76
2021/12/07 00:40:08;;;;;;;;;5.75;1.00;;;;;11.02;89.47;100998.31;5083211;28;61863;-76
2021/12/07 00:42:34;;;;;;;;;6.25;2.25;;;;;11.04;89.24;100992.28;5099932;27;62080;-76
2021/12/07 00:45:00;;;;;;;;;2.00;2.00;;;;;11.07;88.84;100994.16;5104610;27;62378;-76
2021/12/07 00:47:25;;;;;;;;;1.75;0.50;;;;;11.11;89.08;100995.19;5103632;27;61824;-76
2021/12/07 00:49:51;;;;;;;;;1.00;1.00;;;;;11.08;87.87;100997.69;5103851;27;61823;-76
2021/12/07 00:52:16;;;;;;;;;2.50;1.00;;;;;11.03;87.11;101000.09;5104679;27;61846;-76
2021/12/07 00:54:42;;;;;;;;;1.00;1.00;;;;;11.05;87.74;101014.19;5104527;27;61984;-76
2021/12/07 00:57:08;;;;;;;;;2.00;0.25;;;;;10.92;86.17;101010.09;5103991;27;62082;-76
2021/12/07 00:59:33;;;;;;;;;1.00;1.00;;;;;10.80;85.39;101013.06;5103998;27;62024;-76
2021/12/07 01:01:59;;;;;;;;;1.00;0.75;;;;;10.74;85.80;101018.03;5103147;27;61857;-76
2021/12/07 01:04:27;;;;;;;;;0.50;0.00;;;;;10.83;85.58;101013.19;5104431;27;62004;-76
2021/12/07 01:24:39;;;;;;;;;2.00;1.00;;;;;10.83;84.66;101009.69;5103466;27;61752;-76
2021/12/07 01:26:09;;;;;;;;;1.00;1.00;;;;;10.78;85.29;100995.44;5100909;27;62142;-76
2021/12/07 01:28:39;;;;;;;;;0.25;0.25;;;;;10.74;85.40;100998.75;5102006;27;61849;-76
2021/12/07 01:36:23;;;;;;;;;1.00;1.00;;;;;10.59;85.40;100998.94;5101221;27;62529;-76
2021/12/07 01:51:49;;;;;;;;;0.25;0.00;;;;;10.66;84.52;101002.75;5101289;27;62061;-76
2021/12/07 01:59:50;;;;;;;;;2.25;0.00;;;;;10.53;84.96;101017.91;5103991;27;61730;-76
2021/12/07 02:02:19;;;;;;;;;0.25;0.00;;;;;10.58;85.42;101012.88;5102810;27;63252;-76
2021/12/07 02:04:46;;;;;;;;;0.50;0.00;;;;;10.63;85.08;101016.63;5103685;27;61763;-76
2021/12/07 02:07:12;;;;;;;;;0.00;0.00;;;;;10.57;84.23;101019.84;5102211;27;61748;-76
2021/12/07 02:09:42;;;;;;;;;0.00;0.00;;;;;10.56;84.50;101022.38;5102580;27;61734;-76
2021/12/07 02:12:08;;;;;;;;;0.00;0.00;;;;;10.52;84.20;101013.50;5101309;27;64661;-76
2021/12/07 02:14:34;;;;;;;;;0.00;0.00;;;;;10.49;84.14;101009.81;5103375;27;61821;-76
2021/12/07 02:17:03;;;;;;;;;0.00;0.00;;;;;10.49;84.31;101012.44;5103441;27;61870;-76
2021/12/07 02:19:30;;;;;;;;;0.00;0.00;;;;;10.43;84.27;101019.19;5103309;27;61769;-76
2021/12/07 02:21:57;;;;;;;;;2.75;0.00;;;;;10.41;84.70;101012.97;5101633;27;64160;-76
2021/12/07 02:24:24;;;;;;;;;1.25;0.00;;;;;10.38;85.07;101015.44;5101321;27;62331;-76
2021/12/07 02:26:50;;;;;;;;;0.75;0.75;;;;;10.37;85.45;101020.63;5102990;27;61812;-75
2021/12/07 02:29:16;;;;;;;;;0.00;0.00;;;;;10.35;84.21;101025.78;5103405;27;61872;-76
2021/12/07 02:31:42;;;;;;;;;0.00;0.00;;;;;10.28;84.35;101020.13;5102898;27;62216;-76
2021/12/07 02:34:07;;;;;;;;;2.00;0.00;;;;;10.27;85.06;101019.22;5103331;27;61896;-76
2021/12/07 02:36:34;;;;;;;;;1.00;1.00;;;;;10.22;84.32;101021.63;5101757;27;61817;-76
2021/12/07 02:39:00;;;;;;;;;0.00;0.00;;;;;10.17;84.12;101024.84;5102492;27;61925;-76
2021/12/07 02:41:25;;;;;;;;;1.00;1.00;;;;;10.14;84.41;101020.34;5100385;27;63436;-75
2021/12/07 02:43:51;;;;;;;;;1.00;0.00;;;;;10.08;84.36;101024.38;5103224;27;61971;-76
2021/12/07 02:46:17;;;;;;;;;0.00;0.00;;;;;10.06;83.82;101008.56;5101503;27;61887;-75
2021/12/07 02:48:43;;;;;;;;;0.00;0.00;;;;;10.04;83.90;101013.72;5101685;27;61742;-76
2021/12/07 02:51:09;;;;;;;;;2.00;1.00;;;;;9.98;83.83;101021.31;5102480;27;62811;-76
2021/12/07 02:53:36;;;;;;;;;2.50;0.00;;;;;9.97;84.50;101019.50;5102448;27;61879;-76
2021/12/07 02:56:05;;;;;;;;;1.25;0.00;;;;;9.97;84.34;101010.72;5101357;27;61877;-76
2021/12/07 02:58:31;;;;;;;;;1.50;0.00;;;;;9.95;84.30;101001.88;5102666;27;61989;-76
2021/12/07 03:01:08;;;;;;;;;2.00;1.00;;;;;9.94;85.18;101010.56;5102372;27;61828;-76
2021/12/07 03:03:39;;;;;;;;;0.00;0.00;;;;;9.97;85.85;101015.97;5102569;27;61879;-76
2021/12/07 03:27:34;;;;;;;;;1.75;1.00;;;;;10.14;85.77;101028.22;5105634;27;61808;-76
2021/12/07 03:30:00;;;;;;;;;5.50;0.00;;;;;10.16;85.88;101028.28;5106624;27;61773;-75
2021/12/07 03:32:26;;;;;;;;;2.00;1.00;;;;;10.17;85.44;101037.94;5105613;27;62125;-76
2021/12/07 03:34:51;;;;;;;;;1.25;1.00;;;;;10.21;85.45;101047.78;5105738;27;61705;-76
2021/12/07 03:37:17;;;;;;;;;2.00;1.25;;;;;10.24;85.27;101050.56;5105569;27;61786;-76
2021/12/07 03:39:42;;;;;;;;;2.00;1.00;;;;;10.23;85.43;101046.13;5105490;27;62153;-76
2021/12/07 03:42:08;;;;;;;;;0.00;0.00;;;;;10.22;85.44;101040.00;5103165;27;63539;-76
2021/12/07 03:44:33;;;;;;;;;3.00;1.00;;;;;10.15;84.83;101030.00;5105589;27;61824;-76
2021/12/07 03:46:59;;;;;;;;;1.00;1.00;;;;;10.13;84.66;101034.28;5106038;27;61864;-76
2021/12/07 03:49:24;;;;;;;;;0.50;0.00;;;;;10.07;84.67;101035.69;5106010;27;61812;-76
2021/12/07 03:51:50;;;;;;;;;2.50;0.75;;;;;10.02;84.85;101038.97;5104748;27;62026;-76
2021/12/07 03:54:15;;;;;;;;;2.00;1.00;;;;;9.97;85.00;101036.97;5105545;27;62109;-76
2021/12/07 03:56:41;;;;;;;;;0.75;0.25;;;;;9.92;84.82;101023.63;5105193;27;61924;-76
2021/12/07 03:59:06;;;;;;;;;6.75;1.00;;;;;9.92;84.98;101015.75;5105967;27;61761;-76
2021/12/07 04:01:32;;;;;;;;;1.50;1.00;;;;;9.86;85.18;101012.81;5105054;27;61845;-76
2021/12/07 04:03:57;;;;;;;;;3.75;1.00;;;;;9.87;85.25;101016.31;5104263;27;62083;-76
2021/12/07 04:06:23;;;;;;;;;1.50;0.50;;;;;9.89;85.33;101022.56;5105121;27;62177;-76
2021/12/07 04:08:49;;;;;;;;;1.75;1.75;;;;;9.79;85.01;101016.84;5105011;27;61912;-76
2021/12/07 04:11:15;;;;;;;;;1.25;1.00;;;;;9.77;84.99;101008.00;5104586;27;62002;-76
2021/12/07 04:13:44;;;;;;;;;4.50;1.00;;;;;9.78;85.15;101017.66;5103741;27;61784;-76
2021/12/07 04:16:11;;;;;;;;;3.00;1.75;;;;;9.73;85.22;101023.50;5105362;27;61853;-76
2021/12/07 04:18:37;;;;;;;;;0.00;0.00;;;;;9.72;85.38;101033.06;5104509;27;62240;-76
2021/12/07 04:21:03;;;;;;;;;3.50;1.00;;;;;9.70;85.43;101034.69;5104106;27;61921;-76
2021/12/07 04:23:31;;;;;;;;;6.50;1.00;;;;;9.72;85.21;101030.44;5105031;27;61711;-75
2021/12/07 04:25:58;;;;;;;;;3.50;0.50;;;;;9.74;85.14;101034.03;5105005;27;61851;-76
2021/12/07 04:28:23;;;;;;;;;2.25;0.25;;;;;9.74;85.32;101023.56;5104020;27;61904;-76
2021/12/07 04:30:49;;;;;;;;;0.50;0.00;;;;;9.70;84.58;101020.69;5104301;27;62110;-76
2021/12/07 04:33:15;;;;;;;;;2.00;1.00;;;;;9.67;84.53;101025.81;5104803;27;61903;-75
2021/12/07 04:35:43;;;;;;;;;1.00;1.00;;;;;9.67;85.18;101026.69;5103357;27;62275;-75
2021/12/07 04:38:09;;;;;;;;;1.00;1.00;;;;;9.64;85.66;101016.06;5105276;27;62170;-76
2021/12/07 04:40:36;;;;;;;;;2.00;2.00;;;;;9.64;85.16;101018.69;5103820;27;62121;-76
2021/12/07 04:43:02;;;;;;;;;1.00;1.00;;;;;9.61;84.97;101018.50;5104404;27;62103;-75
2021/12/07 04:58:43;;;;;;;;;6.25;3.00;;;;;9.62;84.85;101021.22;5104801;27;61995;-76
2021/12/07 05:01:11;;;;;;;;;1.50;0.75;;;;;9.62;85.19;101021.22;5102627;27;63876;-76
2021/12/07 05:03:41;;;;;;;;;6.00;0.75;;;;;9.65;85.49;101011.72;5103095;27;61925;-76
2021/12/07 05:06:09;;;;;;;;;1.00;1.00;;;;;9.61;85.10;101013.28;5104384;27;62067;-76
2021/12/07 05:08:44;;;;;;;;;1.00;1.00;;;;;9.58;84.88;101018.38;5104944;27;61879;-76
2021/12/07 05:13:57;;;;;;;;;1.75;0.00;;;;;9.55;84.83;101018.19;5104737;27;61790;-76
2021/12/07 05:24:49;;;;;;;;;0.00;0.00;;;;;9.52;85.44;101024.19;5104072;27;61989;-76
2021/12/07 05:37:58;;;;;;;;;1.00;1.00;;;;;9.40;85.15;101034.00;5103958;27;61992;-75
2021/12/07 05:40:26;;;;;;;;;1.00;1.00;;;;;9.46;85.54;101033.44;5103607;27;62093;-76
2021/12/07 05:42:52;;;;;;;;;1.00;1.00;;;;;9.43;85.10;101031.56;5100908;27;63735;-76
2021/12/07 05:45:30;;;;;;;;;3.75;1.75;;;;;9.48;85.92;101030.06;5102041;27;61798;-76
2021/12/07 05:47:55;;;;;;;;;2.75;1.00;;;;;9.46;85.15;101033.44;5102285;27;62038;-75
2021/12/07 05:50:26;;;;;;;;;2.00;2.00;;;;;9.46;85.19;101034.34;5103846;27;62176;-75
2021/12/07 05:52:52;;;;;;;;;5.00;1.00;;;;;9.46;85.75;101041.28;5103363;27;62099;-76
2021/12/07 05:55:18;;;;;;;;;2.75;0.00;;;;;9.42;84.94;101038.50;5103715;27;61848;-75
2021/12/07 05:57:44;;;;;;;;;5.25;2.00;;;;;9.45;85.39;101049.97;5102188;27;61934;-76
2021/12/07 06:00:19;;;;;;;;;2.00;2.00;;;;;9.44;84.91;101042.94;5103586;27;61785;-76
2021/12/07 06:02:44;;;;;;;;;1.75;1.75;;;;;9.45;85.49;101042.09;5102548;27;63157;-76
2021/12/07 06:05:09;;;;;;;;;1.75;1.75;;;;;9.45;85.25;101045.66;5102231;27;61832;-76
2021/12/07 06:07:35;;;;;;;;;5.50;2.00;;;;;9.45;85.44;101036.84;5103572;27;62120;-76
2021/12/07 06:10:01;;;;;;;;;4.50;2.75;;;;;9.46;85.74;101036.06;5103497;27;61922;-76
2021/12/07 06:12:26;;;;;;;;;4.00;1.75;;;;;9.34;84.99;101033.66;5101011;27;63635;-76
2021/12/07 06:14:55;;;;;;;;;3.00;1.75;;;;;9.44;85.55;101028.09;5103402;27;61930;-76
2021/12/07 06:17:21;;;;;;;;;6.25;2.00;;;;;9.48;85.46;101016.97;5103111;27;61734;-76
2021/12/07 06:19:46;;;;;;;;;2.00;1.00;;;;;9.52;85.10;101013.69;5103514;27;61832;-76
2021/12/07 06:22:12;;;;;;;;;5.50;1.75;;;;;9.53;84.85;101007.66;5101296;27;64932;-76
2021/12/07 06:24:37;;;;;;;;;3.00;2.00;;;;;9.53;84.78;100999.78;5103062;27;61915;-76
2021/12/07 06:27:03;;;;;;;;;9.00;4.50;;;;;9.48;83.87;100995.13;5103245;27;61703;-76
2021/12/07 06:29:28;;;;;;;;;5.75;2.50;;;;;9.46;84.33;100988.91;5102912;27;62226;-76
2021/12/07 06:31:54;;;;;;;;;4.25;2.75;;;;;9.46;85.33;100986.28;5102142;27;62115;-76
2021/12/07 06:34:20;;;;;;;;;3.00;2.00;;;;;9.46;84.73;100978.41;5103068;27;62121;-78
2021/12/07 06:36:46;;;;;;;;;6.50;5.25;;;;;9.44;85.26;100974.81;5101549;27;61971;-78
2021/12/07 06:39:12;;;;;;;;;6.00;5.00;;;;;9.39;84.15;100978.09;5101466;27;62103;-77
2021/12/07 06:41:38;;;;;;;;;6.00;3.25;;;;;9.38;85.15;100978.00;5100073;27;63716;-79
2021/12/07 06:44:04;;;;;;;;;3.50;2.00;;;;;9.34;84.40;100981.28;5101666;27;62159;-78
2021/12/07 06:46:29;;;;;;;;;3.00;2.00;;;;;9.33;85.03;100972.53;5102085;27;61994;-78
2021/12/07 06:48:55;;;;;;;;;7.75;5.50;;;;;9.32;84.51;100975.06;5102955;27;61847;-77
2021/12/07 06:51:21;;;;;;;;;10.50;7.25;;;;;9.32;85.56;100970.75;5101887;27;62764;-80
2021/12/07 06:53:46;;;;;;;;;13.50;5.00;;;;;9.29;84.60;100962.72;5102848;27;61924;-80
2021/12/07 06:56:12;;;;;;;;;5.75;5.50;;;;;9.28;85.15;100957.41;5104107;27;61938;-81
2021/12/07 06:58:37;;;;;;;;;8.50;6.00;;;;;9.25;85.09;100950.28;5100562;27;62234;-81
2021/12/07 07:01:06;;;;;;;;;6.25;6.25;;;;;9.26;85.27;100940.72;5105138;27;61820;-82
2021/12/07 07:03:33;;;;;;;;;10.75;7.75;;;;;9.19;84.50;100940.38;5103556;27;61868;-83
2021/12/07 07:05:59;;;;;;;;;12.25;10.00;;;;;9.15;84.71;100938.44;5105575;27;62087;-81
2021/12/07 07:08:24;;;;;;;;;7.50;5.75;;;;;9.13;84.43;100937.44;5106321;27;61839;-81
2021/12/07 07:10:50;;;;;;;;;12.75;9.50;;;;;9.15;85.33;100940.16;5103541;27;64603;-78
2021/12/07 07:13:15;;;;;;;;;15.25;9.00;;;;;9.14;84.83;100928.75;5105603;27;62063;-78
2021/12/07 07:15:41;;;;;;;;;8.00;8.00;;;;;9.13;85.39;100929.59;5103630;27;62171;-79
2021/12/07 07:18:06;;;;;;;;;7.00;7.00;;;;;9.13;84.84;100928.69;5105680;27;61978;-78
2021/12/07 07:20:32;;;;;;;;;8.50;6.00;;;;;9.14;85.24;100922.63;5105498;27;61888;-83
2021/12/07 07:23:01;;;;;;;;;9.00;7.25;;;;;9.12;85.37;100924.25;5104991;27;63016;-79
2021/12/07 07:25:27;;;;;;;;;12.25;9.50;;;;;9.08;85.91;100920.56;5087966;27;61796;-78
2021/12/07 07:27:52;;;;;;;;;11.00;9.00;;;;;9.08;86.47;100917.06;5104404;27;61946;-79
2021/12/07 07:30:19;;;;;;;;;10.00;8.75;;;;;9.11;86.21;100905.03;5100569;27;63338;-78
2021/12/07 07:32:45;;;;;;;;;10.00;8.00;;;;;9.12;86.81;100909.44;5105354;27;61730;-80
2021/12/07 07:35:12;;;;;;;;;16.75;10.00;;;;;9.15;86.59;100896.53;5106039;27;61817;-79
2021/12/07 07:37:38;;;;;;;;;11.25;9.75;;;;;9.18;86.49;100894.06;5104551;27;61929;-79
2021/12/07 07:40:06;;;;;;;;;8.00;6.00;;;;;9.17;85.83;100878.28;5104774;27;61738;-79
2021/12/07 07:42:32;;;;;;;;;5.00;1.75;;;;;9.15;86.30;100872.97;5087892;27;61951;-79
2021/12/07 07:44:58;;;;;;;;;8.75;7.50;;;;;9.18;86.24;100880.06;5085290;27;61998;-81
2021/12/07 07:47:23;;;;;;;;;11.50;9.50;;;;;9.21;86.23;100874.97;5083783;28;61810;-74
2021/12/07 07:49:49;;;;;;;;;9.75;9.00;;;;;9.24;86.24;100867.28;5083108;28;63442;-79
2021/12/07 07:52:15;;;;;;;;;12.75;9.00;;;;;9.28;85.81;100863.13;5101031;27;61974;-76
2021/12/07 07:54:40;;;;;;;;;9.00;8.00;;;;;9.29;86.46;100865.78;5103202;27;61964;-77
2021/12/07 07:57:05;;;;;;;;;10.25;7.50;;;;;9.34;86.65;100872.19;5102586;27;61875;-77
2021/12/07 07:59:31;;;;;;;;;11.00;8.50;;;;;9.34;85.75;100871.25;5103685;27;62735;-76
2021/12/07 08:01:57;;;;;;;;;11.50;9.25;;;;;9.33;85.90;100852.03;5104588;27;61960;-77
2021/12/07 08:04:22;;;;;;;;;13.75;10.00;;;;;9.37;85.71;100858.34;5103782;27;62279;-77
2021/12/07 08:06:48;;;;;;;;;11.50;9.00;;;;;9.41;86.15;100850.69;5104532;27;61899;-77
2021/12/07 08:09:13;;;;;;;;;10.25;9.00;;;;;9.50;86.36;100845.03;5104528;27;61886;-77
2021/12/07 08:11:39;;;;;;;;;11.75;10.00;;;;;9.55;85.50;100845.25;5104446;27;62387;-77
2021/12/07 08:14:05;;;;;;;;;14.00;10.50;;;;;9.62;85.52;100843.00;5104170;27;62267;-76
2021/12/07 08:16:31;;;;;;;;;18.50;12.75;;;;;9.65;85.20;100837.00;5104883;27;61873;-77
2021/12/07 08:18:56;;;;;;;;;11.00;10.00;;;;;9.69;84.97;100830.22;5120454;27;64560;-77
2021/12/07 08:21:25;;;;;;;;;18.00;11.00;;;;;9.73;84.87;100817.31;5105318;27;61848;-77
2021/12/07 08:23:50;;;;;;;;;17.75;14.00;;;;;9.77;84.87;100821.00;5104783;27;61762;-77
2021/12/07 08:26:18;;;;;;;;;21.75;13.75;;;;;9.80;84.57;100819.41;5103159;27;61806;-76
2021/12/07 08:28:44;;;;;;;;;21.50;17.50;;;;;9.82;84.51;100802.03;5100687;27;61875;-78
2021/12/07 08:31:09;;;;;;;;;26.00;19.75;;;;;9.85;84.62;100803.00;5104869;27;61747;-78
2021/12/07 08:33:36;;;;;;;;;21.25;19.00;;;;;9.87;84.47;100799.59;5103321;27;61894;-78
2021/12/07 08:36:03;;;;;;;;;27.00;21.50;;;;;9.92;84.90;100811.22;5105185;27;62390;-79
2021/12/07 08:38:29;;;;;;;;;20.50;17.50;;;;;9.94;84.71;100806.97;5104271;27;62973;-78
2021/12/07 08:40:56;;;;;;;;;30.25;21.75;;;;;10.00;84.03;100803.72;5098438;27;62143;-78
2021/12/07 08:43:23;;;;;;;;;31.75;26.00;;;;;10.09;84.43;100798.00;5083768;27;61883;-78
2021/12/07 08:45:50;;;;;;;;;23.75;23.25;;;;;10.12;83.65;100804.28;5082757;28;62017;-78
2021/12/07 08:48:16;;;;;;;;;22.00;18.00;;;;;10.17;83.77;100801.88;5083012;27;61858;-78
2021/12/07 08:50:44;;;;;;;;;22.25;14.25;;;;;10.18;83.59;100786.22;5083594;28;61779;-78
2021/12/07 08:53:12;;;;;;;;;23.00;18.25;;;;;10.19;84.06;100758.25;5083622;27;61884;-78
2021/12/07 09:01:09;;;;;;;;;54.50;39.00;;;;;10.21;83.08;100759.22;5096710;27;61969;-84
2021/12/07 09:03:34;;;;;;;;;26.25;19.00;;;;;10.19;83.87;100740.78;5103959;27;61701;-83
2021/12/07 09:06:01;;;;;;;;;29.50;23.50;;;;;10.19;83.71;100721.53;5103029;27;61919;-84
2021/12/07 09:08:26;;;;;;;;;33.00;23.25;;;;;10.19;83.38;100722.41;5103778;27;62125;-83
2021/12/07 09:10:52;;;;;;;;;32.50;25.25;;;;;10.18;83.28;100712.78;5102972;27;62194;-83
2021/12/07 09:13:20;;;;;;;;;22.50;17.75;;;;;10.16;83.29;100714.44;5102487;27;62078;-84
2021/12/07 09:15:45;;;;;;;;;30.00;22.50;;;;;10.16;83.19;100722.28;5102908;27;61958;-83
2021/12/07 09:18:11;;;;;;;;;23.25;18.75;;;;;10.22;83.11;100711.19;5100763;27;64082;-83
2021/12/07 09:20:36;;;;;;;;;22.25;19.00;;;;;10.29;82.75;100699.25;5102717;27;62181;-83
2021/12/07 09:23:02;;;;;;;;;26.00;18.00;;;;;10.33;82.97;100691.59;5102029;27;62563;-82
2021/12/07 09:25:28;;;;;;;;;20.00;17.50;;;;;10.34;82.67;100676.75;5118920;27;61875;-83
2021/12/07 09:27:57;;;;;;;;;22.00;13.50;;;;;10.31;82.55;100685.38;5102817;27;61814;-83
2021/12/07 09:30:23;;;;;;;;;18.75;13.75;;;;;10.32;82.53;100687.16;5086795;27;61726;-83
2021/12/07 09:32:48;;;;;;;;;18.00;12.50;;;;;10.24;82.19;100706.91;5099006;27;61943;-83
2021/12/07 09:35:15;;;;;;;;;13.75;11.50;;;;;10.26;82.65;100707.84;5118947;27;62008;-81
2021/12/07 09:37:40;;;;;;;;;17.00;15.25;;;;;10.25;83.05;100706.06;5099870;27;63917;-77
2021/12/07 09:40:11;;;;;;;;;18.25;14.00;;;;;10.28;83.10;100702.69;5101308;27;62042;-77
2021/12/07 09:42:37;;;;;;;;;11.50;10.50;;;;;10.32;83.37;100695.03;5102005;27;61852;-77
2021/12/07 09:45:05;;;;;;;;;14.75;14.00;;;;;10.29;83.01;100707.13;5102281;27;62103;-77
2021/12/07 09:47:31;;;;;;;;;23.25;18.75;;;;;10.31;83.51;100708.13;5103388;27;62261;-75
2021/12/07 09:49:56;;;;;;;;;22.25;15.00;;;;;10.31;83.47;100702.88;5101569;27;62309;-75
2021/12/07 09:52:24;;;;;;;;;16.75;15.50;;;;;10.28;83.20;100681.69;5103125;27;62025;-76
2021/12/07 09:54:50;;;;;;;;;14.25;14.00;;;;;10.29;82.94;100676.56;5101495;27;61746;-80
2021/12/07 09:57:15;;;;;;;;;21.00;18.50;;;;;10.29;83.05;100681.81;5098799;27;62206;-79
2021/12/07 09:59:41;;;;;;;;;18.75;17.50;;;;;10.27;82.79;100687.78;5086702;27;62063;-80
2021/12/07 10:02:07;;;;;;;;;22.50;19.75;;;;;10.27;83.22;100699.16;5095816;27;62011;-80
2021/12/07 10:04:34;;;;;;;;;15.75;13.50;;;;;10.26;82.79;100699.09;5103425;27;61832;-80
2021/12/07 10:07:00;;;;;;;;;25.00;15.25;;;;;10.29;83.08;100702.78;5100084;27;63009;-80
2021/12/07 10:09:26;;;;;;;;;21.00;14.75;;;;;10.26;83.00;100699.97;5102201;27;61829;-79
2021/12/07 10:11:53;;;;;;;;;23.50;14.75;;;;;10.36;83.25;100685.59;5102737;27;61742;-79
2021/12/07 10:14:19;;;;;;;;;24.25;17.75;;;;;10.37;82.99;100669.91;5101786;27;62197;-80
2021/12/07 10:16:50;;;;;;;;;19.25;15.00;;;;;10.39;82.58;100662.09;5112223;27;64042;-79
2021/12/07 10:19:31;;;;;;;;;15.50;11.50;;;;;10.38;83.04;100657.69;5102467;27;61792;-80
2021/12/07 10:22:06;;;;;;;;;18.75;15.75;;;;;10.38;82.93;100647.19;5081110;28;61771;-80
2021/12/07 10:24:41;;;;;;;;;21.25;12.25;;;;;10.39;83.14;100625.34;5081459;28;61843;-79
2021/12/07 10:27:08;;;;;;;;;21.75;17.75;;;;;10.43;83.40;100611.53;5097024;27;64297;-80
2021/12/07 10:29:35;;;;;;;;;23.50;17.00;;;;;10.52;83.28;100614.56;5082142;27;61806;-80
2021/12/07 10:32:05;;;;;;;;;18.75;18.75;;;;;10.60;83.54;100609.63;5081356;27;62219;-80
2021/12/07 10:34:40;;;;;;;;;16.25;13.25;;;;;10.64;83.36;100603.66;5100064;27;61918;-80
2021/12/07 10:37:15;;;;;;;;;11.25;8.50;;;;;10.70;83.36;100590.78;5117145;27;63779;-79
2021/12/07 10:39:44;;;;;;;;;18.50;11.75;;;;;10.79;83.06;100579.78;5117332;27;61934;-80
2021/12/07 10:42:15;;;;;;;;;27.25;18.25;;;;;10.68;82.90;100567.94;5100804;27;62058;-79
2021/12/07 10:44:41;;;;;;;;;30.50;21.25;;;;;10.79;83.33;100553.50;5118926;27;62148;-79
2021/12/07 10:47:12;;;;;;;;;21.75;15.50;;;;;10.90;83.24;100546.06;5097224;27;63689;-79
2021/12/07 10:49:46;;;;;;;;;12.00;10.00;;;;;10.89;82.82;100531.16;5102171;27;61812;-78
2021/12/07 10:52:28;;;;;;;;;12.50;11.00;;;;;10.93;83.39;100528.69;5098182;27;61781;-75
2021/12/07 10:55:04;;;;;;;;;13.50;11.25;;;;;10.98;83.29;100513.13;5102775;27;61979;-75
2021/12/07 10:57:38;;;;;;;;;14.00;10.00;;;;;10.98;83.24;100500.88;5099026;27;64206;-75
2021/12/07 11:00:36;;;;;;;;;12.25;11.75;;;;;11.04;83.60;100497.59;5102319;27;61889;-85
2021/12/07 11:03:07;;;;;;;;;10.25;9.00;;;;;11.11;83.39;100482.97;5101362;27;62297;-81
2021/12/07 11:05:34;;;;;;;;;16.00;12.00;;;;;11.12;83.51;100483.03;5100947;27;61730;-82
2021/12/07 11:08:02;;;;;;;;;14.25;13.50;;;;;11.25;83.58;100468.59;5100625;27;61826;-81
2021/12/07 11:10:31;;;;;;;;;12.00;9.25;;;;;11.31;83.31;100460.03;5098780;27;62075;-80
2021/12/07 11:13:17;;;;;;;;;14.50;14.50;;;;;11.36;83.28;100442.72;5104671;27;62921;-81
2021/12/07 11:15:54;;;;;;;;;14.25;13.00;;;;;11.38;82.94;100423.53;5100206;27;62340;-78
2021/12/07 11:18:48;;;;;;;;;15.50;14.50;;;;;11.45;83.36;100407.13;5101453;27;62804;-81
2021/12/07 11:21:19;;;;;;;;;16.00;14.50;;;;;11.38;83.24;100392.00;5098206;27;61866;-79
2021/12/07 11:23:52;;;;;;;;;29.25;16.00;;;;;11.47;83.72;100391.41;5100569;27;61856;-78
2021/12/07 11:31:56;;;;;;;;;23.25;15.00;;;;;11.50;83.29;100357.34;5081104;28;62169;-82
2021/12/07 11:34:41;;;;;;;;;19.00;16.75;;;;;11.48;83.54;100337.09;5080949;28;61804;-81
2021/12/07 11:37:10;;;;;;;;;13.50;13.50;;;;;11.55;83.75;100344.38;5090718;27;61831;-79
2021/12/07 11:39:47;;;;;;;;;17.25;16.00;;;;;11.62;83.31;100326.22;5099269;27;63203;-82
2021/12/07 11:42:18;;;;;;;;;14.25;14.25;;;;;11.68;82.90;100316.75;5101267;27;62415;-80
2021/12/07 11:45:02;;;;;;;;;21.00;11.00;;;;;11.74;82.73;100317.84;5118784;27;62189;-80
2021/12/07 11:47:30;;;;;;;;;13.75;10.75;;;;;11.84;82.52;100300.59;5102225;27;61899;-80
2021/12/07 11:49:58;;;;;;;;;11.75;11.75;;;;;11.84;81.89;100303.22;5100494;27;63338;-79
2021/12/07 11:52:24;;;;;;;;;14.00;11.75;;;;;11.86;82.26;100288.41;5101631;27;61918;-80
2021/12/07 11:54:50;;;;;;;;;12.25;12.25;;;;;11.86;82.23;100276.13;5110406;27;61831;-80
2021/12/07 11:57:18;;;;;;;;;10.00;6.00;;;;;11.81;82.25;100266.34;5102830;27;62135;-79
2021/12/07 11:59:46;;;;;;;;;8.50;7.00;;;;;11.86;82.35;100265.59;5100669;27;63882;-78
2021/12/07 12:02:12;;;;;;;;;15.50;11.75;;;;;11.84;82.04;100254.16;5099904;27;62000;-79
2021/12/07 12:04:39;;;;;;;;;10.50;7.00;;;;;11.89;82.51;100245.53;5101454;27;61922;-80
2021/12/07 12:07:08;;;;;;;;;16.75;12.00;;;;;11.90;82.52;100236.81;5102886;27;62202;-82
2021/12/07 12:09:37;;;;;;;;;10.25;8.00;;;;;11.92;82.11;100224.63;5100372;27;63462;-77
2021/12/07 12:12:02;;;;;;;;;10.25;7.75;;;;;11.92;82.25;100228.13;5101726;27;62915;-80
2021/12/07 12:15:09;;;;;;;;;14.50;11.25;;;;;11.92;82.13;100214.09;5103038;27;61833;-80
2021/12/07 12:17:57;;;;;;;;;9.75;5.75;;;;;11.90;82.25;100205.28;5102739;27;61792;-82
2021/12/07 12:20:44;;;;;;;;;18.25;10.75;;;;;12.00;82.46;100207.34;5100940;27;63539;-83
2021/12/07 12:23:32;;;;;;;;;12.50;10.25;;;;;12.00;82.18;100186.28;5103089;27;62746;-84
2021/12/07 12:26:06;;;;;;;;;10.25;8.25;;;;;12.05;81.92;100182.03;5102661;27;61869;-84
2021/12/07 12:28:36;;;;;;;;;16.75;13.25;;;;;12.05;81.83;100167.13;5102138;27;61915;-84
2021/12/07 12:31:02;;;;;;;;;15.25;8.50;;;;;12.07;81.80;100154.03;5102919;27;62192;-83
2021/12/07 12:33:52;;;;;;;;;12.00;7.25;;;;;12.06;81.45;100141.72;5100728;27;61821;-83
2021/12/07 12:36:23;;;;;;;;;14.50;10.00;;;;;12.07;81.91;100125.97;5103064;27;63020;-84
2021/12/07 12:39:03;;;;;;;;;11.75;9.75;;;;;12.12;81.96;100119.97;5114192;27;61924;-83
2021/12/07 12:41:28;;;;;;;;;15.00;11.75;;;;;12.13;81.60;100112.13;5103935;27;63209;-83
2021/12/07 12:44:06;;;;;;;;;13.25;12.25;;;;;12.14;81.13;100100.72;5104428;27;62087;-83
2021/12/07 12:46:33;;;;;;;;;15.25;12.00;;;;;12.10;81.79;100090.97;5104217;27;61882;-84
2021/12/07 12:49:06;;;;;;;;;13.25;9.00;;;;;12.15;81.97;100081.47;5103895;27;62157;-84
2021/12/07 12:51:50;;;;;;;;;9.75;7.75;;;;;12.17;81.45;100060.44;5104153;27;62026;-84
2021/12/07 12:54:17;;;;;;;;;9.75;9.25;;;;;12.20;81.86;100048.28;5102852;27;61951;-84
2021/12/07 12:56:43;;;;;;;;;5.75;3.25;;;;;12.27;81.44;100047.59;5102573;27;62359;-84
2021/12/07 12:59:10;;;;;;;;;11.00;6.00;;;;;12.32;81.60;100052.97;5104624;27;61923;-84
2021/12/07 13:01:38;;;;;;;;;7.25;7.25;;;;;12.30;81.45;100038.88;5101819;27;63794;-84
2021/12/07 13:04:10;;;;;;;;;8.00;7.00;;;;;12.31;81.59;100024.00;5102905;27;61813;-84
2021/12/07 13:06:44;;;;;;;;;7.00;6.00;;;;;12.30;81.37;100036.25;5102772;27;62008;-84
2021/12/07 13:09:19;;;;;;;;;7.25;1.50;;;;;12.29;81.38;100031.84;5102854;27;62013;-84
2021/12/07 13:11:55;;;;;;;;;2.25;2.25;;;;;12.26;81.18;100011.59;5103196;27;61748;-83
2021/12/07 13:14:23;;;;;;;;;6.50;3.50;;;;;12.25;81.32;100008.91;5104144;27;61989;-85
2021/12/07 13:16:49;;;;;;;;;6.50;4.25;;;;;12.19;81.15;100016.66;5103617;27;61647;-84